﻿<?xml version="1.0" encoding="UTF-8" standalone="no" ?>
<gpx xmlns="http://www.topografix.com/GPX/1/1" creator="CompeGPS" version="1.1" xmlns:xsi="http://www.w3.org/2001/XMLSchema-instance" xsi:schemaLocation="http://www.topografix.com/GPX/1/1 http://www.topografix.com/GPX/1/1/gpx.xsd http://www.garmin.com/xmlschemas/GpxExtensions/v3 http://www.garmin.com/xmlschemas/GpxExtensionsv3.xsd http://www.garmin.com/xmlschemas/TrackPointExtension/v1 http://www.garmin.com/xmlschemas/TrackPointExtensionv1.xsd" xmlns:gpxtpx="http://www.garmin.com/xmlschemas/TrackPointExtension/v1">
  <metadata>
    <link href="http://www.compegps.com">
      <text>CompeGPS TEAM, SL</text>
    </link>
    <time>2015-12-21T19:01:07Z</time>
    <bounds maxlat="44.594333" maxlon="6.870545" minlat="44.568000" minlon="6.840801"/>
  </metadata>
  <trk>
    <name>Rando_199</name>
    <trkseg>
      <trkpt lat="44.591850" lon="6.840801">
        <ele>1928.0</ele>
        <time>2015-07-09T07:35:14Z</time>
      </trkpt>
      <trkpt lat="44.591892" lon="6.840934">
        <ele>1927.6</ele>
        <time>2015-07-09T07:35:15Z</time>
      </trkpt>
      <trkpt lat="44.591957" lon="6.841117">
        <ele>1926.6</ele>
        <time>2015-07-09T07:38:46Z</time>
      </trkpt>
      <trkpt lat="44.591933" lon="6.841238">
        <ele>1923.9</ele>
        <time>2015-07-09T07:39:05Z</time>
      </trkpt>
      <trkpt lat="44.591947" lon="6.841362">
        <ele>1922.4</ele>
        <time>2015-07-09T07:39:43Z</time>
      </trkpt>
      <trkpt lat="44.591957" lon="6.841375">
        <ele>1922.5</ele>
        <time>2015-07-09T07:39:44Z</time>
      </trkpt>
      <trkpt lat="44.592068" lon="6.841528">
        <ele>1923.1</ele>
        <time>2015-07-09T07:39:57Z</time>
      </trkpt>
      <trkpt lat="44.592133" lon="6.841607">
        <ele>1923.5</ele>
        <time>2015-07-09T07:40:04Z</time>
      </trkpt>
      <trkpt lat="44.592187" lon="6.841700">
        <ele>1923.4</ele>
        <time>2015-07-09T07:40:11Z</time>
      </trkpt>
      <trkpt lat="44.592247" lon="6.841790">
        <ele>1923.8</ele>
        <time>2015-07-09T07:40:18Z</time>
      </trkpt>
      <trkpt lat="44.592297" lon="6.841873">
        <ele>1923.8</ele>
        <time>2015-07-09T07:40:24Z</time>
      </trkpt>
      <trkpt lat="44.592357" lon="6.841958">
        <ele>1924.2</ele>
        <time>2015-07-09T07:40:30Z</time>
      </trkpt>
      <trkpt lat="44.592409" lon="6.842040">
        <ele>1924.2</ele>
        <time>2015-07-09T07:40:36Z</time>
      </trkpt>
      <trkpt lat="44.592465" lon="6.842115">
        <ele>1924.4</ele>
        <time>2015-07-09T07:40:42Z</time>
      </trkpt>
      <trkpt lat="44.592528" lon="6.842185">
        <ele>1925.7</ele>
        <time>2015-07-09T07:40:48Z</time>
      </trkpt>
      <trkpt lat="44.592538" lon="6.842195">
        <ele>1926.0</ele>
        <time>2015-07-09T07:40:49Z</time>
      </trkpt>
      <trkpt lat="44.592672" lon="6.842282">
        <ele>1931.7</ele>
        <time>2015-07-09T07:41:00Z</time>
      </trkpt>
      <trkpt lat="44.592757" lon="6.842313">
        <ele>1935.8</ele>
        <time>2015-07-09T07:41:07Z</time>
      </trkpt>
      <trkpt lat="44.592823" lon="6.842387">
        <ele>1938.1</ele>
        <time>2015-07-09T07:41:15Z</time>
      </trkpt>
      <trkpt lat="44.592892" lon="6.842462">
        <ele>1940.5</ele>
        <time>2015-07-09T07:41:23Z</time>
      </trkpt>
      <trkpt lat="44.592967" lon="6.842503">
        <ele>1943.8</ele>
        <time>2015-07-09T07:41:30Z</time>
      </trkpt>
      <trkpt lat="44.593045" lon="6.842537">
        <ele>1947.4</ele>
        <time>2015-07-09T07:41:36Z</time>
      </trkpt>
      <trkpt lat="44.593112" lon="6.842620">
        <ele>1948.9</ele>
        <time>2015-07-09T07:41:42Z</time>
      </trkpt>
      <trkpt lat="44.593160" lon="6.842717">
        <ele>1949.5</ele>
        <time>2015-07-09T07:41:49Z</time>
      </trkpt>
      <trkpt lat="44.593167" lon="6.842732">
        <ele>1949.6</ele>
        <time>2015-07-09T07:41:50Z</time>
      </trkpt>
      <trkpt lat="44.593260" lon="6.842898">
        <ele>1950.6</ele>
        <time>2015-07-09T07:42:07Z</time>
      </trkpt>
      <trkpt lat="44.593290" lon="6.843008">
        <ele>1949.4</ele>
        <time>2015-07-09T07:42:13Z</time>
      </trkpt>
      <trkpt lat="44.593325" lon="6.843115">
        <ele>1948.7</ele>
        <time>2015-07-09T07:42:19Z</time>
      </trkpt>
      <trkpt lat="44.593360" lon="6.843230">
        <ele>1947.8</ele>
        <time>2015-07-09T07:42:26Z</time>
      </trkpt>
      <trkpt lat="44.593395" lon="6.843342">
        <ele>1947.3</ele>
        <time>2015-07-09T07:42:44Z</time>
      </trkpt>
      <trkpt lat="44.593433" lon="6.843442">
        <ele>1947.9</ele>
        <time>2015-07-09T07:42:50Z</time>
      </trkpt>
      <trkpt lat="44.593438" lon="6.843458">
        <ele>1948.0</ele>
        <time>2015-07-09T07:42:51Z</time>
      </trkpt>
      <trkpt lat="44.593507" lon="6.843648">
        <ele>1948.5</ele>
        <time>2015-07-09T07:43:03Z</time>
      </trkpt>
      <trkpt lat="44.593543" lon="6.843763">
        <ele>1948.7</ele>
        <time>2015-07-09T07:43:10Z</time>
      </trkpt>
      <trkpt lat="44.593578" lon="6.843872">
        <ele>1948.9</ele>
        <time>2015-07-09T07:43:17Z</time>
      </trkpt>
      <trkpt lat="44.593618" lon="6.843975">
        <ele>1949.1</ele>
        <time>2015-07-09T07:44:31Z</time>
      </trkpt>
      <trkpt lat="44.593637" lon="6.843990">
        <ele>1949.7</ele>
        <time>2015-07-09T07:44:32Z</time>
      </trkpt>
      <trkpt lat="44.593670" lon="6.844212">
        <ele>1948.2</ele>
        <time>2015-07-09T07:44:54Z</time>
      </trkpt>
      <trkpt lat="44.593693" lon="6.844328">
        <ele>1948.3</ele>
        <time>2015-07-09T07:45:01Z</time>
      </trkpt>
      <trkpt lat="44.593725" lon="6.844442">
        <ele>1948.9</ele>
        <time>2015-07-09T07:45:18Z</time>
      </trkpt>
      <trkpt lat="44.593747" lon="6.844558">
        <ele>1948.8</ele>
        <time>2015-07-09T07:45:25Z</time>
      </trkpt>
      <trkpt lat="44.593757" lon="6.844672">
        <ele>1948.4</ele>
        <time>2015-07-09T07:45:32Z</time>
      </trkpt>
      <trkpt lat="44.593758" lon="6.844688">
        <ele>1948.3</ele>
        <time>2015-07-09T07:45:33Z</time>
      </trkpt>
      <trkpt lat="44.593743" lon="6.844907">
        <ele>1946.1</ele>
        <time>2015-07-09T07:45:46Z</time>
      </trkpt>
      <trkpt lat="44.593715" lon="6.845022">
        <ele>1944.3</ele>
        <time>2015-07-09T07:45:53Z</time>
      </trkpt>
      <trkpt lat="44.593658" lon="6.845108">
        <ele>1942.1</ele>
        <time>2015-07-09T07:45:59Z</time>
      </trkpt>
      <trkpt lat="44.593595" lon="6.845193">
        <ele>1940.0</ele>
        <time>2015-07-09T07:46:05Z</time>
      </trkpt>
      <trkpt lat="44.593558" lon="6.845290">
        <ele>1938.7</ele>
        <time>2015-07-09T07:46:11Z</time>
      </trkpt>
      <trkpt lat="44.593523" lon="6.845403">
        <ele>1937.8</ele>
        <time>2015-07-09T07:46:17Z</time>
      </trkpt>
      <trkpt lat="44.593490" lon="6.845512">
        <ele>1936.8</ele>
        <time>2015-07-09T07:46:25Z</time>
      </trkpt>
      <trkpt lat="44.593480" lon="6.845623">
        <ele>1936.8</ele>
        <time>2015-07-09T07:46:32Z</time>
      </trkpt>
      <trkpt lat="44.593468" lon="6.845738">
        <ele>1936.7</ele>
        <time>2015-07-09T07:46:39Z</time>
      </trkpt>
      <trkpt lat="44.593468" lon="6.845757">
        <ele>1936.8</ele>
        <time>2015-07-09T07:46:40Z</time>
      </trkpt>
      <trkpt lat="44.593473" lon="6.845970">
        <ele>1937.4</ele>
        <time>2015-07-09T07:46:52Z</time>
      </trkpt>
      <trkpt lat="44.593453" lon="6.846075">
        <ele>1937.1</ele>
        <time>2015-07-09T07:46:58Z</time>
      </trkpt>
      <trkpt lat="44.593430" lon="6.846197">
        <ele>1936.9</ele>
        <time>2015-07-09T07:47:05Z</time>
      </trkpt>
      <trkpt lat="44.593412" lon="6.846310">
        <ele>1936.7</ele>
        <time>2015-07-09T07:47:12Z</time>
      </trkpt>
      <trkpt lat="44.593403" lon="6.846425">
        <ele>1936.9</ele>
        <time>2015-07-09T07:47:19Z</time>
      </trkpt>
      <trkpt lat="44.593442" lon="6.846533">
        <ele>1938.2</ele>
        <time>2015-07-09T07:47:31Z</time>
      </trkpt>
      <trkpt lat="44.593362" lon="6.846538">
        <ele>1936.3</ele>
        <time>2015-07-09T07:47:42Z</time>
      </trkpt>
      <trkpt lat="44.593352" lon="6.846557">
        <ele>1936.1</ele>
        <time>2015-07-09T07:47:43Z</time>
      </trkpt>
      <trkpt lat="44.593352" lon="6.846780">
        <ele>1936.1</ele>
        <time>2015-07-09T07:47:54Z</time>
      </trkpt>
      <trkpt lat="44.593340" lon="6.846898">
        <ele>1935.4</ele>
        <time>2015-07-09T07:48:00Z</time>
      </trkpt>
      <trkpt lat="44.593328" lon="6.847013">
        <ele>1934.7</ele>
        <time>2015-07-09T07:48:06Z</time>
      </trkpt>
      <trkpt lat="44.593332" lon="6.847138">
        <ele>1934.3</ele>
        <time>2015-07-09T07:48:13Z</time>
      </trkpt>
      <trkpt lat="44.593353" lon="6.847245">
        <ele>1934.4</ele>
        <time>2015-07-09T07:48:19Z</time>
      </trkpt>
      <trkpt lat="44.593367" lon="6.847357">
        <ele>1934.4</ele>
        <time>2015-07-09T07:48:25Z</time>
      </trkpt>
      <trkpt lat="44.593375" lon="6.847478">
        <ele>1934.2</ele>
        <time>2015-07-09T07:48:32Z</time>
      </trkpt>
      <trkpt lat="44.593393" lon="6.847602">
        <ele>1934.5</ele>
        <time>2015-07-09T07:48:39Z</time>
      </trkpt>
      <trkpt lat="44.593363" lon="6.847715">
        <ele>1933.5</ele>
        <time>2015-07-09T07:49:02Z</time>
      </trkpt>
      <trkpt lat="44.593353" lon="6.847735">
        <ele>1933.2</ele>
        <time>2015-07-09T07:49:03Z</time>
      </trkpt>
      <trkpt lat="44.593407" lon="6.847945">
        <ele>1934.5</ele>
        <time>2015-07-09T07:49:21Z</time>
      </trkpt>
      <trkpt lat="44.593423" lon="6.848055">
        <ele>1934.9</ele>
        <time>2015-07-09T07:49:28Z</time>
      </trkpt>
      <trkpt lat="44.593443" lon="6.848165">
        <ele>1935.3</ele>
        <time>2015-07-09T07:49:35Z</time>
      </trkpt>
      <trkpt lat="44.593488" lon="6.848273">
        <ele>1936.5</ele>
        <time>2015-07-09T07:49:44Z</time>
      </trkpt>
      <trkpt lat="44.593518" lon="6.848373">
        <ele>1937.1</ele>
        <time>2015-07-09T07:49:50Z</time>
      </trkpt>
      <trkpt lat="44.593562" lon="6.848477">
        <ele>1937.6</ele>
        <time>2015-07-09T07:49:57Z</time>
      </trkpt>
      <trkpt lat="44.593590" lon="6.848578">
        <ele>1937.8</ele>
        <time>2015-07-09T07:50:03Z</time>
      </trkpt>
      <trkpt lat="44.593597" lon="6.848595">
        <ele>1937.8</ele>
        <time>2015-07-09T07:50:04Z</time>
      </trkpt>
      <trkpt lat="44.593655" lon="6.848797">
        <ele>1938.1</ele>
        <time>2015-07-09T07:50:16Z</time>
      </trkpt>
      <trkpt lat="44.593682" lon="6.848917">
        <ele>1938.0</ele>
        <time>2015-07-09T07:50:23Z</time>
      </trkpt>
      <trkpt lat="44.593720" lon="6.849027">
        <ele>1938.2</ele>
        <time>2015-07-09T07:50:30Z</time>
      </trkpt>
      <trkpt lat="44.593738" lon="6.849133">
        <ele>1938.0</ele>
        <time>2015-07-09T07:50:49Z</time>
      </trkpt>
      <trkpt lat="44.593777" lon="6.849238">
        <ele>1938.3</ele>
        <time>2015-07-09T07:50:55Z</time>
      </trkpt>
      <trkpt lat="44.593805" lon="6.849357">
        <ele>1938.5</ele>
        <time>2015-07-09T07:51:01Z</time>
      </trkpt>
      <trkpt lat="44.593835" lon="6.849460">
        <ele>1938.9</ele>
        <time>2015-07-09T07:51:06Z</time>
      </trkpt>
      <trkpt lat="44.593842" lon="6.849485">
        <ele>1938.9</ele>
        <time>2015-07-09T07:51:07Z</time>
      </trkpt>
      <trkpt lat="44.593885" lon="6.849685">
        <ele>1939.4</ele>
        <time>2015-07-09T07:51:17Z</time>
      </trkpt>
      <trkpt lat="44.593918" lon="6.849798">
        <ele>1939.9</ele>
        <time>2015-07-09T07:51:23Z</time>
      </trkpt>
      <trkpt lat="44.593973" lon="6.849892">
        <ele>1941.2</ele>
        <time>2015-07-09T07:51:29Z</time>
      </trkpt>
      <trkpt lat="44.594008" lon="6.849993">
        <ele>1942.0</ele>
        <time>2015-07-09T07:51:35Z</time>
      </trkpt>
      <trkpt lat="44.594025" lon="6.850113">
        <ele>1941.9</ele>
        <time>2015-07-09T07:51:42Z</time>
      </trkpt>
      <trkpt lat="44.594035" lon="6.850228">
        <ele>1941.7</ele>
        <time>2015-07-09T07:51:49Z</time>
      </trkpt>
      <trkpt lat="44.594052" lon="6.850342">
        <ele>1941.6</ele>
        <time>2015-07-09T07:51:56Z</time>
      </trkpt>
      <trkpt lat="44.594063" lon="6.850460">
        <ele>1941.5</ele>
        <time>2015-07-09T07:52:03Z</time>
      </trkpt>
      <trkpt lat="44.594078" lon="6.850580">
        <ele>1941.3</ele>
        <time>2015-07-09T07:52:10Z</time>
      </trkpt>
      <trkpt lat="44.594080" lon="6.850597">
        <ele>1941.4</ele>
        <time>2015-07-09T07:52:11Z</time>
      </trkpt>
      <trkpt lat="44.594105" lon="6.850818">
        <ele>1941.0</ele>
        <time>2015-07-09T07:52:24Z</time>
      </trkpt>
      <trkpt lat="44.594122" lon="6.850935">
        <ele>1940.0</ele>
        <time>2015-07-09T07:52:31Z</time>
      </trkpt>
      <trkpt lat="44.594147" lon="6.851045">
        <ele>1938.9</ele>
        <time>2015-07-09T07:52:38Z</time>
      </trkpt>
      <trkpt lat="44.594168" lon="6.851163">
        <ele>1937.6</ele>
        <time>2015-07-09T07:52:45Z</time>
      </trkpt>
      <trkpt lat="44.594207" lon="6.851263">
        <ele>1937.2</ele>
        <time>2015-07-09T07:52:51Z</time>
      </trkpt>
      <trkpt lat="44.594252" lon="6.851367">
        <ele>1936.9</ele>
        <time>2015-07-09T07:52:59Z</time>
      </trkpt>
      <trkpt lat="44.594295" lon="6.851477">
        <ele>1936.9</ele>
        <time>2015-07-09T07:53:07Z</time>
      </trkpt>
      <trkpt lat="44.594332" lon="6.851577">
        <ele>1936.6</ele>
        <time>2015-07-09T07:53:13Z</time>
      </trkpt>
      <trkpt lat="44.594333" lon="6.851595">
        <ele>1936.4</ele>
        <time>2015-07-09T07:53:14Z</time>
      </trkpt>
      <trkpt lat="44.594247" lon="6.851787">
        <ele>1930.7</ele>
        <time>2015-07-09T07:53:42Z</time>
      </trkpt>
      <trkpt lat="44.594197" lon="6.851878">
        <ele>1927.8</ele>
        <time>2015-07-09T07:53:49Z</time>
      </trkpt>
      <trkpt lat="44.594208" lon="6.852003">
        <ele>1926.8</ele>
        <time>2015-07-09T07:53:56Z</time>
      </trkpt>
      <trkpt lat="44.594212" lon="6.852120">
        <ele>1925.7</ele>
        <time>2015-07-09T07:54:05Z</time>
      </trkpt>
      <trkpt lat="44.594162" lon="6.852207">
        <ele>1923.2</ele>
        <time>2015-07-09T07:54:12Z</time>
      </trkpt>
      <trkpt lat="44.594110" lon="6.852307">
        <ele>1921.6</ele>
        <time>2015-07-09T07:54:19Z</time>
      </trkpt>
      <trkpt lat="44.594103" lon="6.852320">
        <ele>1921.5</ele>
        <time>2015-07-09T07:54:20Z</time>
      </trkpt>
      <trkpt lat="44.594057" lon="6.852535">
        <ele>1919.8</ele>
        <time>2015-07-09T07:54:36Z</time>
      </trkpt>
      <trkpt lat="44.594033" lon="6.852648">
        <ele>1921.0</ele>
        <time>2015-07-09T07:54:45Z</time>
      </trkpt>
      <trkpt lat="44.594045" lon="6.852765">
        <ele>1922.4</ele>
        <time>2015-07-09T07:54:54Z</time>
      </trkpt>
      <trkpt lat="44.594075" lon="6.852872">
        <ele>1923.6</ele>
        <time>2015-07-09T07:55:02Z</time>
      </trkpt>
      <trkpt lat="44.594082" lon="6.852993">
        <ele>1925.1</ele>
        <time>2015-07-09T07:55:11Z</time>
      </trkpt>
      <trkpt lat="44.594093" lon="6.853115">
        <ele>1926.5</ele>
        <time>2015-07-09T07:55:20Z</time>
      </trkpt>
      <trkpt lat="44.594095" lon="6.853127">
        <ele>1926.6</ele>
        <time>2015-07-09T07:55:21Z</time>
      </trkpt>
      <trkpt lat="44.594062" lon="6.853338">
        <ele>1928.9</ele>
        <time>2015-07-09T07:55:37Z</time>
      </trkpt>
      <trkpt lat="44.594015" lon="6.853438">
        <ele>1929.8</ele>
        <time>2015-07-09T07:55:46Z</time>
      </trkpt>
      <trkpt lat="44.593998" lon="6.853548">
        <ele>1930.8</ele>
        <time>2015-07-09T07:55:54Z</time>
      </trkpt>
      <trkpt lat="44.593970" lon="6.853667">
        <ele>1931.8</ele>
        <time>2015-07-09T07:56:03Z</time>
      </trkpt>
      <trkpt lat="44.593948" lon="6.853777">
        <ele>1932.8</ele>
        <time>2015-07-09T07:56:12Z</time>
      </trkpt>
      <trkpt lat="44.593947" lon="6.853890">
        <ele>1933.8</ele>
        <time>2015-07-09T07:56:21Z</time>
      </trkpt>
      <trkpt lat="44.593943" lon="6.853905">
        <ele>1934.1</ele>
        <time>2015-07-09T07:56:22Z</time>
      </trkpt>
      <trkpt lat="44.593883" lon="6.854113">
        <ele>1935.8</ele>
        <time>2015-07-09T07:56:39Z</time>
      </trkpt>
      <trkpt lat="44.593827" lon="6.854210">
        <ele>1936.2</ele>
        <time>2015-07-09T07:56:46Z</time>
      </trkpt>
      <trkpt lat="44.593803" lon="6.854332">
        <ele>1936.1</ele>
        <time>2015-07-09T07:56:57Z</time>
      </trkpt>
      <trkpt lat="44.593765" lon="6.854428">
        <ele>1936.0</ele>
        <time>2015-07-09T07:57:07Z</time>
      </trkpt>
      <trkpt lat="44.593723" lon="6.854537">
        <ele>1936.0</ele>
        <time>2015-07-09T07:57:14Z</time>
      </trkpt>
      <trkpt lat="44.593662" lon="6.854625">
        <ele>1935.9</ele>
        <time>2015-07-09T07:57:23Z</time>
      </trkpt>
      <trkpt lat="44.593670" lon="6.854643">
        <ele>1935.9</ele>
        <time>2015-07-09T07:57:24Z</time>
      </trkpt>
      <trkpt lat="44.593553" lon="6.854808">
        <ele>1935.9</ele>
        <time>2015-07-09T07:57:44Z</time>
      </trkpt>
      <trkpt lat="44.593475" lon="6.854867">
        <ele>1935.9</ele>
        <time>2015-07-09T07:57:54Z</time>
      </trkpt>
      <trkpt lat="44.593403" lon="6.854933">
        <ele>1935.9</ele>
        <time>2015-07-09T07:58:05Z</time>
      </trkpt>
      <trkpt lat="44.593370" lon="6.855048">
        <ele>1936.0</ele>
        <time>2015-07-09T07:58:13Z</time>
      </trkpt>
      <trkpt lat="44.593293" lon="6.855103">
        <ele>1936.3</ele>
        <time>2015-07-09T07:58:22Z</time>
      </trkpt>
      <trkpt lat="44.593223" lon="6.855163">
        <ele>1936.8</ele>
        <time>2015-07-09T07:58:31Z</time>
      </trkpt>
      <trkpt lat="44.593215" lon="6.855175">
        <ele>1936.9</ele>
        <time>2015-07-09T07:58:32Z</time>
      </trkpt>
      <trkpt lat="44.593090" lon="6.855320">
        <ele>1937.9</ele>
        <time>2015-07-09T07:58:51Z</time>
      </trkpt>
      <trkpt lat="44.593043" lon="6.855422">
        <ele>1938.4</ele>
        <time>2015-07-09T07:59:03Z</time>
      </trkpt>
      <trkpt lat="44.592972" lon="6.855497">
        <ele>1939.1</ele>
        <time>2015-07-09T07:59:15Z</time>
      </trkpt>
      <trkpt lat="44.592887" lon="6.855527">
        <ele>1939.8</ele>
        <time>2015-07-09T07:59:26Z</time>
      </trkpt>
      <trkpt lat="44.592807" lon="6.855578">
        <ele>1940.5</ele>
        <time>2015-07-09T07:59:37Z</time>
      </trkpt>
      <trkpt lat="44.592802" lon="6.855585">
        <ele>1940.6</ele>
        <time>2015-07-09T07:59:38Z</time>
      </trkpt>
      <trkpt lat="44.592660" lon="6.855685">
        <ele>1942.0</ele>
        <time>2015-07-09T07:59:55Z</time>
      </trkpt>
      <trkpt lat="44.592597" lon="6.855758">
        <ele>1942.8</ele>
        <time>2015-07-09T08:00:04Z</time>
      </trkpt>
      <trkpt lat="44.592530" lon="6.855825">
        <ele>1943.7</ele>
        <time>2015-07-09T08:00:11Z</time>
      </trkpt>
      <trkpt lat="44.592458" lon="6.855887">
        <ele>1945.1</ele>
        <time>2015-07-09T08:00:17Z</time>
      </trkpt>
      <trkpt lat="44.592388" lon="6.855962">
        <ele>1946.9</ele>
        <time>2015-07-09T08:00:24Z</time>
      </trkpt>
      <trkpt lat="44.592337" lon="6.856022">
        <ele>1948.1</ele>
        <time>2015-07-09T08:00:40Z</time>
      </trkpt>
      <trkpt lat="44.592322" lon="6.856063">
        <ele>1948.6</ele>
        <time>2015-07-09T08:00:41Z</time>
      </trkpt>
      <trkpt lat="44.592193" lon="6.856140">
        <ele>1951.3</ele>
        <time>2015-07-09T08:00:56Z</time>
      </trkpt>
      <trkpt lat="44.592128" lon="6.856200">
        <ele>1952.7</ele>
        <time>2015-07-09T08:01:03Z</time>
      </trkpt>
      <trkpt lat="44.592080" lon="6.856290">
        <ele>1954.0</ele>
        <time>2015-07-09T08:01:11Z</time>
      </trkpt>
      <trkpt lat="44.592037" lon="6.856388">
        <ele>1955.2</ele>
        <time>2015-07-09T08:01:19Z</time>
      </trkpt>
      <trkpt lat="44.592025" lon="6.856508">
        <ele>1956.0</ele>
        <time>2015-07-09T08:01:30Z</time>
      </trkpt>
      <trkpt lat="44.591985" lon="6.856615">
        <ele>1957.1</ele>
        <time>2015-07-09T08:01:42Z</time>
      </trkpt>
      <trkpt lat="44.591965" lon="6.856625">
        <ele>1957.4</ele>
        <time>2015-07-09T08:01:43Z</time>
      </trkpt>
      <trkpt lat="44.591833" lon="6.856720">
        <ele>1960.5</ele>
        <time>2015-07-09T08:01:59Z</time>
      </trkpt>
      <trkpt lat="44.591772" lon="6.856805">
        <ele>1962.6</ele>
        <time>2015-07-09T08:02:11Z</time>
      </trkpt>
      <trkpt lat="44.591725" lon="6.856905">
        <ele>1965.1</ele>
        <time>2015-07-09T08:02:27Z</time>
      </trkpt>
      <trkpt lat="44.591680" lon="6.857008">
        <ele>1967.5</ele>
        <time>2015-07-09T08:02:36Z</time>
      </trkpt>
      <trkpt lat="44.591698" lon="6.857130">
        <ele>1969.2</ele>
        <time>2015-07-09T08:02:53Z</time>
      </trkpt>
      <trkpt lat="44.591697" lon="6.857140">
        <ele>1969.4</ele>
        <time>2015-07-09T08:02:54Z</time>
      </trkpt>
      <trkpt lat="44.591615" lon="6.857335">
        <ele>1974.0</ele>
        <time>2015-07-09T08:03:14Z</time>
      </trkpt>
      <trkpt lat="44.591535" lon="6.857345">
        <ele>1975.5</ele>
        <time>2015-07-09T08:03:25Z</time>
      </trkpt>
      <trkpt lat="44.591463" lon="6.857272">
        <ele>1975.7</ele>
        <time>2015-07-09T08:03:35Z</time>
      </trkpt>
      <trkpt lat="44.591428" lon="6.857158">
        <ele>1975.0</ele>
        <time>2015-07-09T08:03:47Z</time>
      </trkpt>
      <trkpt lat="44.591407" lon="6.857038">
        <ele>1974.2</ele>
        <time>2015-07-09T08:03:56Z</time>
      </trkpt>
      <trkpt lat="44.591410" lon="6.857022">
        <ele>1974.0</ele>
        <time>2015-07-09T08:03:57Z</time>
      </trkpt>
      <trkpt lat="44.591463" lon="6.856815">
        <ele>1970.1</ele>
        <time>2015-07-09T08:04:16Z</time>
      </trkpt>
      <trkpt lat="44.591490" lon="6.856697">
        <ele>1967.8</ele>
        <time>2015-07-09T08:04:27Z</time>
      </trkpt>
      <trkpt lat="44.591508" lon="6.856577">
        <ele>1966.8</ele>
        <time>2015-07-09T08:04:39Z</time>
      </trkpt>
      <trkpt lat="44.591557" lon="6.856483">
        <ele>1965.1</ele>
        <time>2015-07-09T08:04:52Z</time>
      </trkpt>
      <trkpt lat="44.591585" lon="6.856380">
        <ele>1963.8</ele>
        <time>2015-07-09T08:04:59Z</time>
      </trkpt>
      <trkpt lat="44.591588" lon="6.856365">
        <ele>1963.7</ele>
        <time>2015-07-09T08:05:00Z</time>
      </trkpt>
      <trkpt lat="44.591568" lon="6.856175">
        <ele>1964.0</ele>
        <time>2015-07-09T08:05:17Z</time>
      </trkpt>
      <trkpt lat="44.591497" lon="6.856232">
        <ele>1966.8</ele>
        <time>2015-07-09T08:05:28Z</time>
      </trkpt>
      <trkpt lat="44.591440" lon="6.856313">
        <ele>1968.9</ele>
        <time>2015-07-09T08:05:38Z</time>
      </trkpt>
      <trkpt lat="44.591412" lon="6.856425">
        <ele>1969.9</ele>
        <time>2015-07-09T08:05:53Z</time>
      </trkpt>
      <trkpt lat="44.591400" lon="6.856547">
        <ele>1970.4</ele>
        <time>2015-07-09T08:06:12Z</time>
      </trkpt>
      <trkpt lat="44.591402" lon="6.856552">
        <ele>1970.2</ele>
        <time>2015-07-09T08:06:13Z</time>
      </trkpt>
      <trkpt lat="44.591345" lon="6.856755">
        <ele>1972.8</ele>
        <time>2015-07-09T08:06:39Z</time>
      </trkpt>
      <trkpt lat="44.591280" lon="6.856817">
        <ele>1975.3</ele>
        <time>2015-07-09T08:06:45Z</time>
      </trkpt>
      <trkpt lat="44.591228" lon="6.856918">
        <ele>1977.4</ele>
        <time>2015-07-09T08:06:56Z</time>
      </trkpt>
      <trkpt lat="44.591182" lon="6.857018">
        <ele>1979.4</ele>
        <time>2015-07-09T08:07:06Z</time>
      </trkpt>
      <trkpt lat="44.591157" lon="6.857137">
        <ele>1980.6</ele>
        <time>2015-07-09T08:07:16Z</time>
      </trkpt>
      <trkpt lat="44.591148" lon="6.857150">
        <ele>1980.9</ele>
        <time>2015-07-09T08:07:17Z</time>
      </trkpt>
      <trkpt lat="44.591168" lon="6.857370">
        <ele>1981.8</ele>
        <time>2015-07-09T08:07:44Z</time>
      </trkpt>
      <trkpt lat="44.591190" lon="6.857485">
        <ele>1982.2</ele>
        <time>2015-07-09T08:07:58Z</time>
      </trkpt>
      <trkpt lat="44.591227" lon="6.857595">
        <ele>1983.9</ele>
        <time>2015-07-09T08:08:11Z</time>
      </trkpt>
      <trkpt lat="44.591247" lon="6.857708">
        <ele>1986.3</ele>
        <time>2015-07-09T08:08:22Z</time>
      </trkpt>
      <trkpt lat="44.591247" lon="6.857718">
        <ele>1986.3</ele>
        <time>2015-07-09T08:08:23Z</time>
      </trkpt>
      <trkpt lat="44.591317" lon="6.857917">
        <ele>1990.3</ele>
        <time>2015-07-09T08:08:44Z</time>
      </trkpt>
      <trkpt lat="44.591325" lon="6.858042">
        <ele>1993.0</ele>
        <time>2015-07-09T08:08:58Z</time>
      </trkpt>
      <trkpt lat="44.591307" lon="6.858163">
        <ele>1996.2</ele>
        <time>2015-07-09T08:09:13Z</time>
      </trkpt>
      <trkpt lat="44.591302" lon="6.858285">
        <ele>1999.0</ele>
        <time>2015-07-09T08:09:25Z</time>
      </trkpt>
      <trkpt lat="44.591305" lon="6.858293">
        <ele>1999.3</ele>
        <time>2015-07-09T08:09:26Z</time>
      </trkpt>
      <trkpt lat="44.591258" lon="6.858523">
        <ele>2005.2</ele>
        <time>2015-07-09T08:09:50Z</time>
      </trkpt>
      <trkpt lat="44.591198" lon="6.858592">
        <ele>2007.1</ele>
        <time>2015-07-09T08:09:56Z</time>
      </trkpt>
      <trkpt lat="44.591138" lon="6.858675">
        <ele>2009.7</ele>
        <time>2015-07-09T08:10:03Z</time>
      </trkpt>
      <trkpt lat="44.591073" lon="6.858762">
        <ele>2012.3</ele>
        <time>2015-07-09T08:10:13Z</time>
      </trkpt>
      <trkpt lat="44.591008" lon="6.858830">
        <ele>2014.2</ele>
        <time>2015-07-09T08:10:23Z</time>
      </trkpt>
      <trkpt lat="44.590945" lon="6.858908">
        <ele>2016.3</ele>
        <time>2015-07-09T08:10:31Z</time>
      </trkpt>
      <trkpt lat="44.590932" lon="6.858912">
        <ele>2016.4</ele>
        <time>2015-07-09T08:10:32Z</time>
      </trkpt>
      <trkpt lat="44.590805" lon="6.859022">
        <ele>2020.2</ele>
        <time>2015-07-09T08:10:47Z</time>
      </trkpt>
      <trkpt lat="44.590720" lon="6.859018">
        <ele>2022.1</ele>
        <time>2015-07-09T08:10:57Z</time>
      </trkpt>
      <trkpt lat="44.590638" lon="6.859000">
        <ele>2023.9</ele>
        <time>2015-07-09T08:11:09Z</time>
      </trkpt>
      <trkpt lat="44.590555" lon="6.858968">
        <ele>2025.1</ele>
        <time>2015-07-09T08:11:21Z</time>
      </trkpt>
      <trkpt lat="44.590480" lon="6.858908">
        <ele>2026.1</ele>
        <time>2015-07-09T08:11:35Z</time>
      </trkpt>
      <trkpt lat="44.590475" lon="6.858897">
        <ele>2026.0</ele>
        <time>2015-07-09T08:11:36Z</time>
      </trkpt>
      <trkpt lat="44.590347" lon="6.858765">
        <ele>2027.2</ele>
        <time>2015-07-09T08:11:52Z</time>
      </trkpt>
      <trkpt lat="44.590297" lon="6.858672">
        <ele>2027.2</ele>
        <time>2015-07-09T08:12:00Z</time>
      </trkpt>
      <trkpt lat="44.590238" lon="6.858580">
        <ele>2027.5</ele>
        <time>2015-07-09T08:12:12Z</time>
      </trkpt>
      <trkpt lat="44.590153" lon="6.858553">
        <ele>2029.8</ele>
        <time>2015-07-09T08:12:23Z</time>
      </trkpt>
      <trkpt lat="44.590065" lon="6.858533">
        <ele>2032.3</ele>
        <time>2015-07-09T08:12:33Z</time>
      </trkpt>
      <trkpt lat="44.589983" lon="6.858560">
        <ele>2034.8</ele>
        <time>2015-07-09T08:12:47Z</time>
      </trkpt>
      <trkpt lat="44.589977" lon="6.858560">
        <ele>2034.9</ele>
        <time>2015-07-09T08:12:48Z</time>
      </trkpt>
      <trkpt lat="44.589838" lon="6.858692">
        <ele>2038.0</ele>
        <time>2015-07-09T08:13:11Z</time>
      </trkpt>
      <trkpt lat="44.589773" lon="6.858773">
        <ele>2039.6</ele>
        <time>2015-07-09T08:13:23Z</time>
      </trkpt>
      <trkpt lat="44.589697" lon="6.858837">
        <ele>2041.1</ele>
        <time>2015-07-09T08:13:41Z</time>
      </trkpt>
      <trkpt lat="44.589620" lon="6.858902">
        <ele>2042.6</ele>
        <time>2015-07-09T08:13:52Z</time>
      </trkpt>
      <trkpt lat="44.589612" lon="6.858910">
        <ele>2042.9</ele>
        <time>2015-07-09T08:13:53Z</time>
      </trkpt>
      <trkpt lat="44.589473" lon="6.859020">
        <ele>2045.4</ele>
        <time>2015-07-09T08:14:08Z</time>
      </trkpt>
      <trkpt lat="44.589413" lon="6.859092">
        <ele>2046.8</ele>
        <time>2015-07-09T08:14:15Z</time>
      </trkpt>
      <trkpt lat="44.589335" lon="6.859057">
        <ele>2047.2</ele>
        <time>2015-07-09T08:14:24Z</time>
      </trkpt>
      <trkpt lat="44.589280" lon="6.858965">
        <ele>2046.8</ele>
        <time>2015-07-09T08:14:57Z</time>
      </trkpt>
      <trkpt lat="44.589268" lon="6.858964">
        <ele>2046.9</ele>
        <time>2015-07-09T08:14:58Z</time>
      </trkpt>
      <trkpt lat="44.589125" lon="6.858873">
        <ele>2047.5</ele>
        <time>2015-07-09T08:15:09Z</time>
      </trkpt>
      <trkpt lat="44.589042" lon="6.858847">
        <ele>2048.0</ele>
        <time>2015-07-09T08:15:15Z</time>
      </trkpt>
      <trkpt lat="44.588953" lon="6.858845">
        <ele>2048.8</ele>
        <time>2015-07-09T08:15:22Z</time>
      </trkpt>
      <trkpt lat="44.588868" lon="6.858865">
        <ele>2049.7</ele>
        <time>2015-07-09T08:15:30Z</time>
      </trkpt>
      <trkpt lat="44.588793" lon="6.858898">
        <ele>2050.6</ele>
        <time>2015-07-09T08:15:37Z</time>
      </trkpt>
      <trkpt lat="44.588708" lon="6.858897">
        <ele>2051.4</ele>
        <time>2015-07-09T08:15:47Z</time>
      </trkpt>
      <trkpt lat="44.588623" lon="6.858890">
        <ele>2052.1</ele>
        <time>2015-07-09T08:15:56Z</time>
      </trkpt>
      <trkpt lat="44.588550" lon="6.858960">
        <ele>2053.2</ele>
        <time>2015-07-09T08:16:08Z</time>
      </trkpt>
      <trkpt lat="44.588547" lon="6.858960">
        <ele>2053.2</ele>
        <time>2015-07-09T08:16:09Z</time>
      </trkpt>
      <trkpt lat="44.588383" lon="6.858960">
        <ele>2054.6</ele>
        <time>2015-07-09T08:16:31Z</time>
      </trkpt>
      <trkpt lat="44.588295" lon="6.858957">
        <ele>2055.6</ele>
        <time>2015-07-09T08:16:39Z</time>
      </trkpt>
      <trkpt lat="44.588210" lon="6.858923">
        <ele>2057.0</ele>
        <time>2015-07-09T08:16:47Z</time>
      </trkpt>
      <trkpt lat="44.588135" lon="6.858868">
        <ele>2058.1</ele>
        <time>2015-07-09T08:16:56Z</time>
      </trkpt>
      <trkpt lat="44.588055" lon="6.858828">
        <ele>2059.4</ele>
        <time>2015-07-09T08:17:07Z</time>
      </trkpt>
      <trkpt lat="44.587973" lon="6.858802">
        <ele>2060.7</ele>
        <time>2015-07-09T08:17:16Z</time>
      </trkpt>
      <trkpt lat="44.587965" lon="6.858797">
        <ele>2060.8</ele>
        <time>2015-07-09T08:17:17Z</time>
      </trkpt>
      <trkpt lat="44.587817" lon="6.858728">
        <ele>2063.1</ele>
        <time>2015-07-09T08:17:38Z</time>
      </trkpt>
      <trkpt lat="44.587733" lon="6.858748">
        <ele>2064.8</ele>
        <time>2015-07-09T08:17:49Z</time>
      </trkpt>
      <trkpt lat="44.587675" lon="6.858665">
        <ele>2065.4</ele>
        <time>2015-07-09T08:17:59Z</time>
      </trkpt>
      <trkpt lat="44.587602" lon="6.858613">
        <ele>2066.4</ele>
        <time>2015-07-09T08:18:08Z</time>
      </trkpt>
      <trkpt lat="44.587513" lon="6.858620">
        <ele>2068.1</ele>
        <time>2015-07-09T08:18:31Z</time>
      </trkpt>
      <trkpt lat="44.587505" lon="6.858610">
        <ele>2068.2</ele>
        <time>2015-07-09T08:18:32Z</time>
      </trkpt>
      <trkpt lat="44.587347" lon="6.858620">
        <ele>2071.4</ele>
        <time>2015-07-09T08:18:48Z</time>
      </trkpt>
      <trkpt lat="44.587272" lon="6.858688">
        <ele>2073.2</ele>
        <time>2015-07-09T08:19:00Z</time>
      </trkpt>
      <trkpt lat="44.587185" lon="6.858717">
        <ele>2075.0</ele>
        <time>2015-07-09T08:19:16Z</time>
      </trkpt>
      <trkpt lat="44.587107" lon="6.858658">
        <ele>2076.3</ele>
        <time>2015-07-09T08:19:34Z</time>
      </trkpt>
      <trkpt lat="44.587102" lon="6.858653">
        <ele>2076.3</ele>
        <time>2015-07-09T08:19:35Z</time>
      </trkpt>
      <trkpt lat="44.586935" lon="6.858725">
        <ele>2080.0</ele>
        <time>2015-07-09T08:20:03Z</time>
      </trkpt>
      <trkpt lat="44.586887" lon="6.858628">
        <ele>2080.4</ele>
        <time>2015-07-09T08:20:20Z</time>
      </trkpt>
      <trkpt lat="44.586808" lon="6.858582">
        <ele>2081.7</ele>
        <time>2015-07-09T08:20:35Z</time>
      </trkpt>
      <trkpt lat="44.586803" lon="6.858578">
        <ele>2081.7</ele>
        <time>2015-07-09T08:20:36Z</time>
      </trkpt>
      <trkpt lat="44.586645" lon="6.858517">
        <ele>2084.6</ele>
        <time>2015-07-09T08:21:05Z</time>
      </trkpt>
      <trkpt lat="44.586562" lon="6.858533">
        <ele>2086.7</ele>
        <time>2015-07-09T08:21:17Z</time>
      </trkpt>
      <trkpt lat="44.586482" lon="6.858565">
        <ele>2088.8</ele>
        <time>2015-07-09T08:21:27Z</time>
      </trkpt>
      <trkpt lat="44.586400" lon="6.858613">
        <ele>2091.0</ele>
        <time>2015-07-09T08:21:37Z</time>
      </trkpt>
      <trkpt lat="44.586393" lon="6.858615">
        <ele>2091.2</ele>
        <time>2015-07-09T08:21:38Z</time>
      </trkpt>
      <trkpt lat="44.586247" lon="6.858670">
        <ele>2095.1</ele>
        <time>2015-07-09T08:22:17Z</time>
      </trkpt>
      <trkpt lat="44.586167" lon="6.858718">
        <ele>2097.2</ele>
        <time>2015-07-09T08:22:35Z</time>
      </trkpt>
      <trkpt lat="44.586090" lon="6.858762">
        <ele>2099.4</ele>
        <time>2015-07-09T08:22:48Z</time>
      </trkpt>
      <trkpt lat="44.586083" lon="6.858767">
        <ele>2099.6</ele>
        <time>2015-07-09T08:22:49Z</time>
      </trkpt>
      <trkpt lat="44.585960" lon="6.858912">
        <ele>2103.4</ele>
        <time>2015-07-09T08:23:23Z</time>
      </trkpt>
      <trkpt lat="44.585892" lon="6.858983">
        <ele>2105.5</ele>
        <time>2015-07-09T08:23:44Z</time>
      </trkpt>
      <trkpt lat="44.585813" lon="6.859038">
        <ele>2107.6</ele>
        <time>2015-07-09T08:23:58Z</time>
      </trkpt>
      <trkpt lat="44.585807" lon="6.859038">
        <ele>2107.7</ele>
        <time>2015-07-09T08:23:59Z</time>
      </trkpt>
      <trkpt lat="44.585648" lon="6.859115">
        <ele>2111.5</ele>
        <time>2015-07-09T08:24:44Z</time>
      </trkpt>
      <trkpt lat="44.585580" lon="6.859192">
        <ele>2113.9</ele>
        <time>2015-07-09T08:25:01Z</time>
      </trkpt>
      <trkpt lat="44.585575" lon="6.859195">
        <ele>2114.0</ele>
        <time>2015-07-09T08:25:02Z</time>
      </trkpt>
      <trkpt lat="44.585513" lon="6.859397">
        <ele>2119.0</ele>
        <time>2015-07-09T08:25:31Z</time>
      </trkpt>
      <trkpt lat="44.585455" lon="6.859488">
        <ele>2122.3</ele>
        <time>2015-07-09T08:25:52Z</time>
      </trkpt>
      <trkpt lat="44.585393" lon="6.859398">
        <ele>2122.1</ele>
        <time>2015-07-09T08:26:08Z</time>
      </trkpt>
      <trkpt lat="44.585390" lon="6.859390">
        <ele>2122.2</ele>
        <time>2015-07-09T08:26:09Z</time>
      </trkpt>
      <trkpt lat="44.585245" lon="6.859283">
        <ele>2123.4</ele>
        <time>2015-07-09T08:26:52Z</time>
      </trkpt>
      <trkpt lat="44.585225" lon="6.859315">
        <ele>2124.5</ele>
        <time>2015-07-09T08:27:23Z</time>
      </trkpt>
      <trkpt lat="44.585148" lon="6.859333">
        <ele>2126.7</ele>
        <time>2015-07-09T08:27:24Z</time>
      </trkpt>
      <trkpt lat="44.585053" lon="6.859303">
        <ele>2128.3</ele>
        <time>2015-07-09T08:28:39Z</time>
      </trkpt>
      <trkpt lat="44.585048" lon="6.859303">
        <ele>2128.4</ele>
        <time>2015-07-09T08:28:40Z</time>
      </trkpt>
      <trkpt lat="44.584878" lon="6.859290">
        <ele>2131.3</ele>
        <time>2015-07-09T08:29:13Z</time>
      </trkpt>
      <trkpt lat="44.584913" lon="6.859400">
        <ele>2134.1</ele>
        <time>2015-07-09T08:29:37Z</time>
      </trkpt>
      <trkpt lat="44.584847" lon="6.859482">
        <ele>2137.7</ele>
        <time>2015-07-09T08:29:54Z</time>
      </trkpt>
      <trkpt lat="44.584842" lon="6.859482">
        <ele>2137.8</ele>
        <time>2015-07-09T08:29:55Z</time>
      </trkpt>
      <trkpt lat="44.584673" lon="6.859453">
        <ele>2140.3</ele>
        <time>2015-07-09T08:30:27Z</time>
      </trkpt>
      <trkpt lat="44.584615" lon="6.859370">
        <ele>2138.5</ele>
        <time>2015-07-09T08:30:41Z</time>
      </trkpt>
      <trkpt lat="44.584532" lon="6.859388">
        <ele>2140.9</ele>
        <time>2015-07-09T08:30:57Z</time>
      </trkpt>
      <trkpt lat="44.584525" lon="6.859390">
        <ele>2141.0</ele>
        <time>2015-07-09T08:30:58Z</time>
      </trkpt>
      <trkpt lat="44.584362" lon="6.859430">
        <ele>2145.5</ele>
        <time>2015-07-09T08:31:26Z</time>
      </trkpt>
      <trkpt lat="44.584285" lon="6.859487">
        <ele>2149.0</ele>
        <time>2015-07-09T08:31:37Z</time>
      </trkpt>
      <trkpt lat="44.584207" lon="6.859532">
        <ele>2152.6</ele>
        <time>2015-07-09T08:31:46Z</time>
      </trkpt>
      <trkpt lat="44.584150" lon="6.859613">
        <ele>2156.6</ele>
        <time>2015-07-09T08:31:56Z</time>
      </trkpt>
      <trkpt lat="44.584072" lon="6.859662">
        <ele>2159.1</ele>
        <time>2015-07-09T08:32:06Z</time>
      </trkpt>
      <trkpt lat="44.584067" lon="6.859663">
        <ele>2159.1</ele>
        <time>2015-07-09T08:32:07Z</time>
      </trkpt>
      <trkpt lat="44.583915" lon="6.859755">
        <ele>2163.1</ele>
        <time>2015-07-09T08:32:27Z</time>
      </trkpt>
      <trkpt lat="44.583843" lon="6.859822">
        <ele>2165.5</ele>
        <time>2015-07-09T08:32:37Z</time>
      </trkpt>
      <trkpt lat="44.583778" lon="6.859888">
        <ele>2167.7</ele>
        <time>2015-07-09T08:32:46Z</time>
      </trkpt>
      <trkpt lat="44.583697" lon="6.859927">
        <ele>2169.0</ele>
        <time>2015-07-09T08:32:57Z</time>
      </trkpt>
      <trkpt lat="44.583622" lon="6.859992">
        <ele>2171.0</ele>
        <time>2015-07-09T08:33:10Z</time>
      </trkpt>
      <trkpt lat="44.583617" lon="6.859993">
        <ele>2171.0</ele>
        <time>2015-07-09T08:33:11Z</time>
      </trkpt>
      <trkpt lat="44.583467" lon="6.860083">
        <ele>2172.7</ele>
        <time>2015-07-09T08:33:42Z</time>
      </trkpt>
      <trkpt lat="44.583397" lon="6.860150">
        <ele>2173.8</ele>
        <time>2015-07-09T08:33:55Z</time>
      </trkpt>
      <trkpt lat="44.583315" lon="6.860122">
        <ele>2173.1</ele>
        <time>2015-07-09T08:34:08Z</time>
      </trkpt>
      <trkpt lat="44.583228" lon="6.860090">
        <ele>2171.8</ele>
        <time>2015-07-09T08:34:20Z</time>
      </trkpt>
      <trkpt lat="44.583220" lon="6.860092">
        <ele>2171.7</ele>
        <time>2015-07-09T08:34:21Z</time>
      </trkpt>
      <trkpt lat="44.583058" lon="6.860097">
        <ele>2170.2</ele>
        <time>2015-07-09T08:34:42Z</time>
      </trkpt>
      <trkpt lat="44.582975" lon="6.860115">
        <ele>2169.6</ele>
        <time>2015-07-09T08:34:53Z</time>
      </trkpt>
      <trkpt lat="44.582892" lon="6.860142">
        <ele>2169.6</ele>
        <time>2015-07-09T08:35:08Z</time>
      </trkpt>
      <trkpt lat="44.582807" lon="6.860162">
        <ele>2169.1</ele>
        <time>2015-07-09T08:35:21Z</time>
      </trkpt>
      <trkpt lat="44.582798" lon="6.860165">
        <ele>2169.0</ele>
        <time>2015-07-09T08:35:22Z</time>
      </trkpt>
      <trkpt lat="44.582672" lon="6.860012">
        <ele>2164.9</ele>
        <time>2015-07-09T08:36:08Z</time>
      </trkpt>
      <trkpt lat="44.582618" lon="6.859912">
        <ele>2162.1</ele>
        <time>2015-07-09T08:36:16Z</time>
      </trkpt>
      <trkpt lat="44.582583" lon="6.859798">
        <ele>2159.0</ele>
        <time>2015-07-09T08:36:26Z</time>
      </trkpt>
      <trkpt lat="44.582583" lon="6.859783">
        <ele>2158.7</ele>
        <time>2015-07-09T08:36:27Z</time>
      </trkpt>
      <trkpt lat="44.582468" lon="6.859627">
        <ele>2154.8</ele>
        <time>2015-07-09T08:36:49Z</time>
      </trkpt>
      <trkpt lat="44.582397" lon="6.859560">
        <ele>2154.5</ele>
        <time>2015-07-09T08:37:02Z</time>
      </trkpt>
      <trkpt lat="44.582333" lon="6.859483">
        <ele>2153.8</ele>
        <time>2015-07-09T08:37:13Z</time>
      </trkpt>
      <trkpt lat="44.582258" lon="6.859428">
        <ele>2153.9</ele>
        <time>2015-07-09T08:37:25Z</time>
      </trkpt>
      <trkpt lat="44.582193" lon="6.859353">
        <ele>2153.3</ele>
        <time>2015-07-09T08:37:35Z</time>
      </trkpt>
      <trkpt lat="44.582185" lon="6.859343">
        <ele>2153.2</ele>
        <time>2015-07-09T08:37:36Z</time>
      </trkpt>
      <trkpt lat="44.582023" lon="6.859302">
        <ele>2155.2</ele>
        <time>2015-07-09T08:37:56Z</time>
      </trkpt>
      <trkpt lat="44.581942" lon="6.859282">
        <ele>2156.1</ele>
        <time>2015-07-09T08:38:05Z</time>
      </trkpt>
      <trkpt lat="44.581855" lon="6.859283">
        <ele>2157.8</ele>
        <time>2015-07-09T08:38:16Z</time>
      </trkpt>
      <trkpt lat="44.581778" lon="6.859252">
        <ele>2158.4</ele>
        <time>2015-07-09T08:38:33Z</time>
      </trkpt>
      <trkpt lat="44.581698" lon="6.859205">
        <ele>2159.1</ele>
        <time>2015-07-09T08:38:42Z</time>
      </trkpt>
      <trkpt lat="44.581692" lon="6.859207">
        <ele>2159.2</ele>
        <time>2015-07-09T08:38:43Z</time>
      </trkpt>
      <trkpt lat="44.581537" lon="6.859185">
        <ele>2160.1</ele>
        <time>2015-07-09T08:39:00Z</time>
      </trkpt>
      <trkpt lat="44.581465" lon="6.859223">
        <ele>2161.4</ele>
        <time>2015-07-09T08:39:10Z</time>
      </trkpt>
      <trkpt lat="44.581388" lon="6.859273">
        <ele>2163.3</ele>
        <time>2015-07-09T08:39:18Z</time>
      </trkpt>
      <trkpt lat="44.581317" lon="6.859342">
        <ele>2165.7</ele>
        <time>2015-07-09T08:39:24Z</time>
      </trkpt>
      <trkpt lat="44.581233" lon="6.859388">
        <ele>2168.2</ele>
        <time>2015-07-09T08:39:33Z</time>
      </trkpt>
      <trkpt lat="44.581143" lon="6.859377">
        <ele>2168.9</ele>
        <time>2015-07-09T08:39:44Z</time>
      </trkpt>
      <trkpt lat="44.581135" lon="6.859375">
        <ele>2169.0</ele>
        <time>2015-07-09T08:39:45Z</time>
      </trkpt>
      <trkpt lat="44.580983" lon="6.859470">
        <ele>2174.1</ele>
        <time>2015-07-09T08:40:04Z</time>
      </trkpt>
      <trkpt lat="44.580912" lon="6.859535">
        <ele>2177.6</ele>
        <time>2015-07-09T08:40:15Z</time>
      </trkpt>
      <trkpt lat="44.580827" lon="6.859552">
        <ele>2179.5</ele>
        <time>2015-07-09T08:40:26Z</time>
      </trkpt>
      <trkpt lat="44.580742" lon="6.859567">
        <ele>2180.9</ele>
        <time>2015-07-09T08:40:35Z</time>
      </trkpt>
      <trkpt lat="44.580660" lon="6.859550">
        <ele>2181.2</ele>
        <time>2015-07-09T08:40:45Z</time>
      </trkpt>
      <trkpt lat="44.580652" lon="6.859547">
        <ele>2181.3</ele>
        <time>2015-07-09T08:40:46Z</time>
      </trkpt>
      <trkpt lat="44.580493" lon="6.859572">
        <ele>2183.9</ele>
        <time>2015-07-09T08:41:08Z</time>
      </trkpt>
      <trkpt lat="44.580410" lon="6.859592">
        <ele>2185.3</ele>
        <time>2015-07-09T08:41:18Z</time>
      </trkpt>
      <trkpt lat="44.580327" lon="6.859602">
        <ele>2186.7</ele>
        <time>2015-07-09T08:41:33Z</time>
      </trkpt>
      <trkpt lat="44.580238" lon="6.859610">
        <ele>2188.2</ele>
        <time>2015-07-09T08:41:45Z</time>
      </trkpt>
      <trkpt lat="44.580160" lon="6.859562">
        <ele>2186.8</ele>
        <time>2015-07-09T08:45:48Z</time>
      </trkpt>
      <trkpt lat="44.580152" lon="6.859567">
        <ele>2186.9</ele>
        <time>2015-07-09T08:45:49Z</time>
      </trkpt>
      <trkpt lat="44.579993" lon="6.859633">
        <ele>2191.2</ele>
        <time>2015-07-09T08:46:11Z</time>
      </trkpt>
      <trkpt lat="44.579907" lon="6.859642">
        <ele>2192.5</ele>
        <time>2015-07-09T08:46:25Z</time>
      </trkpt>
      <trkpt lat="44.579822" lon="6.859680">
        <ele>2194.7</ele>
        <time>2015-07-09T08:46:38Z</time>
      </trkpt>
      <trkpt lat="44.579738" lon="6.859682">
        <ele>2195.3</ele>
        <time>2015-07-09T08:46:51Z</time>
      </trkpt>
      <trkpt lat="44.579730" lon="6.859682">
        <ele>2195.4</ele>
        <time>2015-07-09T08:46:52Z</time>
      </trkpt>
      <trkpt lat="44.579590" lon="6.859787">
        <ele>2199.7</ele>
        <time>2015-07-09T08:47:15Z</time>
      </trkpt>
      <trkpt lat="44.579518" lon="6.859848">
        <ele>2201.9</ele>
        <time>2015-07-09T08:47:27Z</time>
      </trkpt>
      <trkpt lat="44.579453" lon="6.859923">
        <ele>2204.2</ele>
        <time>2015-07-09T08:47:38Z</time>
      </trkpt>
      <trkpt lat="44.579375" lon="6.859978">
        <ele>2205.6</ele>
        <time>2015-07-09T08:47:49Z</time>
      </trkpt>
      <trkpt lat="44.579292" lon="6.859998">
        <ele>2206.2</ele>
        <time>2015-07-09T08:48:02Z</time>
      </trkpt>
      <trkpt lat="44.579283" lon="6.860005">
        <ele>2206.1</ele>
        <time>2015-07-09T08:48:03Z</time>
      </trkpt>
      <trkpt lat="44.579158" lon="6.860115">
        <ele>2209.9</ele>
        <time>2015-07-09T08:48:36Z</time>
      </trkpt>
      <trkpt lat="44.579078" lon="6.860165">
        <ele>2212.0</ele>
        <time>2015-07-09T08:48:45Z</time>
      </trkpt>
      <trkpt lat="44.578998" lon="6.860220">
        <ele>2214.6</ele>
        <time>2015-07-09T08:48:56Z</time>
      </trkpt>
      <trkpt lat="44.578933" lon="6.860290">
        <ele>2217.2</ele>
        <time>2015-07-09T08:49:07Z</time>
      </trkpt>
      <trkpt lat="44.578927" lon="6.860298">
        <ele>2217.7</ele>
        <time>2015-07-09T08:49:08Z</time>
      </trkpt>
      <trkpt lat="44.578802" lon="6.860455">
        <ele>2223.8</ele>
        <time>2015-07-09T08:49:33Z</time>
      </trkpt>
      <trkpt lat="44.578750" lon="6.860553">
        <ele>2227.3</ele>
        <time>2015-07-09T08:49:45Z</time>
      </trkpt>
      <trkpt lat="44.578678" lon="6.860628">
        <ele>2230.4</ele>
        <time>2015-07-09T08:50:21Z</time>
      </trkpt>
      <trkpt lat="44.578675" lon="6.860628">
        <ele>2230.4</ele>
        <time>2015-07-09T08:50:22Z</time>
      </trkpt>
      <trkpt lat="44.578522" lon="6.860725">
        <ele>2234.2</ele>
        <time>2015-07-09T08:50:45Z</time>
      </trkpt>
      <trkpt lat="44.578452" lon="6.860797">
        <ele>2237.3</ele>
        <time>2015-07-09T08:50:55Z</time>
      </trkpt>
      <trkpt lat="44.578372" lon="6.860853">
        <ele>2239.3</ele>
        <time>2015-07-09T08:51:05Z</time>
      </trkpt>
      <trkpt lat="44.578290" lon="6.860883">
        <ele>2240.3</ele>
        <time>2015-07-09T08:51:16Z</time>
      </trkpt>
      <trkpt lat="44.578203" lon="6.860898">
        <ele>2240.0</ele>
        <time>2015-07-09T08:51:30Z</time>
      </trkpt>
      <trkpt lat="44.578198" lon="6.860902">
        <ele>2239.9</ele>
        <time>2015-07-09T08:51:31Z</time>
      </trkpt>
      <trkpt lat="44.578033" lon="6.860902">
        <ele>2238.6</ele>
        <time>2015-07-09T08:52:00Z</time>
      </trkpt>
      <trkpt lat="44.577947" lon="6.860932">
        <ele>2238.7</ele>
        <time>2015-07-09T08:52:14Z</time>
      </trkpt>
      <trkpt lat="44.577858" lon="6.860945">
        <ele>2238.5</ele>
        <time>2015-07-09T08:52:28Z</time>
      </trkpt>
      <trkpt lat="44.577778" lon="6.861000">
        <ele>2239.6</ele>
        <time>2015-07-09T08:52:48Z</time>
      </trkpt>
      <trkpt lat="44.577772" lon="6.861002">
        <ele>2240.0</ele>
        <time>2015-07-09T08:52:49Z</time>
      </trkpt>
      <trkpt lat="44.577612" lon="6.861057">
        <ele>2240.6</ele>
        <time>2015-07-09T08:53:17Z</time>
      </trkpt>
      <trkpt lat="44.577530" lon="6.861088">
        <ele>2240.8</ele>
        <time>2015-07-09T08:55:00Z</time>
      </trkpt>
      <trkpt lat="44.577522" lon="6.861095">
        <ele>2241.2</ele>
        <time>2015-07-09T08:55:01Z</time>
      </trkpt>
      <trkpt lat="44.577383" lon="6.861205">
        <ele>2245.2</ele>
        <time>2015-07-09T08:55:19Z</time>
      </trkpt>
      <trkpt lat="44.577308" lon="6.861265">
        <ele>2247.7</ele>
        <time>2015-07-09T08:55:30Z</time>
      </trkpt>
      <trkpt lat="44.577233" lon="6.861318">
        <ele>2249.8</ele>
        <time>2015-07-09T08:55:41Z</time>
      </trkpt>
      <trkpt lat="44.577155" lon="6.861380">
        <ele>2252.3</ele>
        <time>2015-07-09T08:55:53Z</time>
      </trkpt>
      <trkpt lat="44.577083" lon="6.861437">
        <ele>2254.3</ele>
        <time>2015-07-09T08:56:05Z</time>
      </trkpt>
      <trkpt lat="44.577078" lon="6.861447">
        <ele>2254.7</ele>
        <time>2015-07-09T08:56:06Z</time>
      </trkpt>
      <trkpt lat="44.576940" lon="6.861572">
        <ele>2259.0</ele>
        <time>2015-07-09T08:56:26Z</time>
      </trkpt>
      <trkpt lat="44.576872" lon="6.861640">
        <ele>2261.7</ele>
        <time>2015-07-09T08:56:39Z</time>
      </trkpt>
      <trkpt lat="44.576812" lon="6.861727">
        <ele>2264.0</ele>
        <time>2015-07-09T08:56:48Z</time>
      </trkpt>
      <trkpt lat="44.576762" lon="6.861828">
        <ele>2266.7</ele>
        <time>2015-07-09T08:56:58Z</time>
      </trkpt>
      <trkpt lat="44.576708" lon="6.861928">
        <ele>2269.3</ele>
        <time>2015-07-09T08:57:09Z</time>
      </trkpt>
      <trkpt lat="44.576705" lon="6.861940">
        <ele>2269.6</ele>
        <time>2015-07-09T08:57:10Z</time>
      </trkpt>
      <trkpt lat="44.576630" lon="6.862135">
        <ele>2273.6</ele>
        <time>2015-07-09T08:57:32Z</time>
      </trkpt>
      <trkpt lat="44.576550" lon="6.862182">
        <ele>2273.2</ele>
        <time>2015-07-09T08:57:44Z</time>
      </trkpt>
      <trkpt lat="44.576470" lon="6.862233">
        <ele>2273.0</ele>
        <time>2015-07-09T08:57:56Z</time>
      </trkpt>
      <trkpt lat="44.576403" lon="6.862298">
        <ele>2273.3</ele>
        <time>2015-07-09T08:58:05Z</time>
      </trkpt>
      <trkpt lat="44.576345" lon="6.862380">
        <ele>2273.9</ele>
        <time>2015-07-09T08:58:15Z</time>
      </trkpt>
      <trkpt lat="44.576338" lon="6.862387">
        <ele>2274.1</ele>
        <time>2015-07-09T08:58:16Z</time>
      </trkpt>
      <trkpt lat="44.576190" lon="6.862482">
        <ele>2273.3</ele>
        <time>2015-07-09T08:58:34Z</time>
      </trkpt>
      <trkpt lat="44.576132" lon="6.862560">
        <ele>2273.8</ele>
        <time>2015-07-09T08:58:43Z</time>
      </trkpt>
      <trkpt lat="44.576080" lon="6.862647">
        <ele>2274.7</ele>
        <time>2015-07-09T08:58:52Z</time>
      </trkpt>
      <trkpt lat="44.576035" lon="6.862752">
        <ele>2275.8</ele>
        <time>2015-07-09T08:59:03Z</time>
      </trkpt>
      <trkpt lat="44.575970" lon="6.862838">
        <ele>2276.3</ele>
        <time>2015-07-09T08:59:12Z</time>
      </trkpt>
      <trkpt lat="44.575913" lon="6.862933">
        <ele>2277.0</ele>
        <time>2015-07-09T08:59:21Z</time>
      </trkpt>
      <trkpt lat="44.575907" lon="6.862945">
        <ele>2277.1</ele>
        <time>2015-07-09T08:59:22Z</time>
      </trkpt>
      <trkpt lat="44.575827" lon="6.863128">
        <ele>2278.9</ele>
        <time>2015-07-09T08:59:37Z</time>
      </trkpt>
      <trkpt lat="44.575775" lon="6.863225">
        <ele>2279.8</ele>
        <time>2015-07-09T08:59:46Z</time>
      </trkpt>
      <trkpt lat="44.575742" lon="6.863327">
        <ele>2281.3</ele>
        <time>2015-07-09T09:00:05Z</time>
      </trkpt>
      <trkpt lat="44.575683" lon="6.863420">
        <ele>2282.2</ele>
        <time>2015-07-09T09:00:15Z</time>
      </trkpt>
      <trkpt lat="44.575625" lon="6.863503">
        <ele>2283.1</ele>
        <time>2015-07-09T09:00:24Z</time>
      </trkpt>
      <trkpt lat="44.575618" lon="6.863515">
        <ele>2283.2</ele>
        <time>2015-07-09T09:00:25Z</time>
      </trkpt>
      <trkpt lat="44.575480" lon="6.863552">
        <ele>2281.4</ele>
        <time>2015-07-09T09:00:48Z</time>
      </trkpt>
      <trkpt lat="44.575402" lon="6.863530">
        <ele>2279.9</ele>
        <time>2015-07-09T09:00:54Z</time>
      </trkpt>
      <trkpt lat="44.575317" lon="6.863533">
        <ele>2278.5</ele>
        <time>2015-07-09T09:01:00Z</time>
      </trkpt>
      <trkpt lat="44.575245" lon="6.863598">
        <ele>2278.5</ele>
        <time>2015-07-09T09:01:08Z</time>
      </trkpt>
      <trkpt lat="44.575175" lon="6.863658">
        <ele>2278.5</ele>
        <time>2015-07-09T09:01:16Z</time>
      </trkpt>
      <trkpt lat="44.575095" lon="6.863697">
        <ele>2277.7</ele>
        <time>2015-07-09T09:01:25Z</time>
      </trkpt>
      <trkpt lat="44.575088" lon="6.863705">
        <ele>2277.6</ele>
        <time>2015-07-09T09:01:26Z</time>
      </trkpt>
      <trkpt lat="44.574935" lon="6.863770">
        <ele>2276.7</ele>
        <time>2015-07-09T09:01:48Z</time>
      </trkpt>
      <trkpt lat="44.574853" lon="6.863817">
        <ele>2276.9</ele>
        <time>2015-07-09T09:01:58Z</time>
      </trkpt>
      <trkpt lat="44.574778" lon="6.863873">
        <ele>2277.3</ele>
        <time>2015-07-09T09:02:06Z</time>
      </trkpt>
      <trkpt lat="44.574710" lon="6.863945">
        <ele>2278.2</ele>
        <time>2015-07-09T09:02:15Z</time>
      </trkpt>
      <trkpt lat="44.574633" lon="6.863995">
        <ele>2278.4</ele>
        <time>2015-07-09T09:02:25Z</time>
      </trkpt>
      <trkpt lat="44.574552" lon="6.864020">
        <ele>2278.3</ele>
        <time>2015-07-09T09:02:34Z</time>
      </trkpt>
      <trkpt lat="44.574543" lon="6.864022">
        <ele>2278.5</ele>
        <time>2015-07-09T09:02:35Z</time>
      </trkpt>
      <trkpt lat="44.574388" lon="6.864083">
        <ele>2278.5</ele>
        <time>2015-07-09T09:02:55Z</time>
      </trkpt>
      <trkpt lat="44.574303" lon="6.864117">
        <ele>2278.7</ele>
        <time>2015-07-09T09:03:07Z</time>
      </trkpt>
      <trkpt lat="44.574215" lon="6.864135">
        <ele>2278.5</ele>
        <time>2015-07-09T09:03:26Z</time>
      </trkpt>
      <trkpt lat="44.574165" lon="6.864037">
        <ele>2276.2</ele>
        <time>2015-07-09T09:03:43Z</time>
      </trkpt>
      <trkpt lat="44.574162" lon="6.864030">
        <ele>2275.9</ele>
        <time>2015-07-09T09:03:44Z</time>
      </trkpt>
      <trkpt lat="44.574023" lon="6.863942">
        <ele>2275.2</ele>
        <time>2015-07-09T09:04:25Z</time>
      </trkpt>
      <trkpt lat="44.573945" lon="6.863980">
        <ele>2276.6</ele>
        <time>2015-07-09T09:04:32Z</time>
      </trkpt>
      <trkpt lat="44.573868" lon="6.864030">
        <ele>2278.3</ele>
        <time>2015-07-09T09:04:40Z</time>
      </trkpt>
      <trkpt lat="44.573787" lon="6.864070">
        <ele>2279.7</ele>
        <time>2015-07-09T09:04:48Z</time>
      </trkpt>
      <trkpt lat="44.573783" lon="6.864072">
        <ele>2279.7</ele>
        <time>2015-07-09T09:04:49Z</time>
      </trkpt>
      <trkpt lat="44.573638" lon="6.864192">
        <ele>2283.3</ele>
        <time>2015-07-09T09:05:14Z</time>
      </trkpt>
      <trkpt lat="44.573552" lon="6.864225">
        <ele>2284.4</ele>
        <time>2015-07-09T09:05:23Z</time>
      </trkpt>
      <trkpt lat="44.573468" lon="6.864193">
        <ele>2284.5</ele>
        <time>2015-07-09T09:05:41Z</time>
      </trkpt>
      <trkpt lat="44.573382" lon="6.864207">
        <ele>2285.3</ele>
        <time>2015-07-09T09:05:52Z</time>
      </trkpt>
      <trkpt lat="44.573372" lon="6.864207">
        <ele>2285.3</ele>
        <time>2015-07-09T09:05:53Z</time>
      </trkpt>
      <trkpt lat="44.573215" lon="6.864238">
        <ele>2286.3</ele>
        <time>2015-07-09T09:06:13Z</time>
      </trkpt>
      <trkpt lat="44.573138" lon="6.864295">
        <ele>2287.6</ele>
        <time>2015-07-09T09:06:23Z</time>
      </trkpt>
      <trkpt lat="44.573060" lon="6.864337">
        <ele>2288.4</ele>
        <time>2015-07-09T09:06:34Z</time>
      </trkpt>
      <trkpt lat="44.572983" lon="6.864392">
        <ele>2289.5</ele>
        <time>2015-07-09T09:06:44Z</time>
      </trkpt>
      <trkpt lat="44.572910" lon="6.864462">
        <ele>2290.8</ele>
        <time>2015-07-09T09:06:53Z</time>
      </trkpt>
      <trkpt lat="44.572902" lon="6.864470">
        <ele>2291.1</ele>
        <time>2015-07-09T09:06:54Z</time>
      </trkpt>
      <trkpt lat="44.572768" lon="6.864588">
        <ele>2293.5</ele>
        <time>2015-07-09T09:07:11Z</time>
      </trkpt>
      <trkpt lat="44.572705" lon="6.864665">
        <ele>2295.1</ele>
        <time>2015-07-09T09:07:19Z</time>
      </trkpt>
      <trkpt lat="44.572663" lon="6.864762">
        <ele>2296.9</ele>
        <time>2015-07-09T09:07:27Z</time>
      </trkpt>
      <trkpt lat="44.572598" lon="6.864843">
        <ele>2298.8</ele>
        <time>2015-07-09T09:07:37Z</time>
      </trkpt>
      <trkpt lat="44.572528" lon="6.864915">
        <ele>2300.2</ele>
        <time>2015-07-09T09:07:46Z</time>
      </trkpt>
      <trkpt lat="44.572467" lon="6.864992">
        <ele>2301.8</ele>
        <time>2015-07-09T09:07:54Z</time>
      </trkpt>
      <trkpt lat="44.572457" lon="6.865000">
        <ele>2302.1</ele>
        <time>2015-07-09T09:07:55Z</time>
      </trkpt>
      <trkpt lat="44.572345" lon="6.865142">
        <ele>2305.3</ele>
        <time>2015-07-09T09:08:32Z</time>
      </trkpt>
      <trkpt lat="44.572283" lon="6.865232">
        <ele>2307.0</ele>
        <time>2015-07-09T09:08:40Z</time>
      </trkpt>
      <trkpt lat="44.572240" lon="6.865328">
        <ele>2309.0</ele>
        <time>2015-07-09T09:08:46Z</time>
      </trkpt>
      <trkpt lat="44.572207" lon="6.865440">
        <ele>2311.1</ele>
        <time>2015-07-09T09:08:53Z</time>
      </trkpt>
      <trkpt lat="44.572187" lon="6.865548">
        <ele>2313.3</ele>
        <time>2015-07-09T09:09:02Z</time>
      </trkpt>
      <trkpt lat="44.572187" lon="6.865563">
        <ele>2313.6</ele>
        <time>2015-07-09T09:09:03Z</time>
      </trkpt>
      <trkpt lat="44.572138" lon="6.865787">
        <ele>2317.7</ele>
        <time>2015-07-09T09:09:19Z</time>
      </trkpt>
      <trkpt lat="44.572108" lon="6.865895">
        <ele>2319.3</ele>
        <time>2015-07-09T09:09:27Z</time>
      </trkpt>
      <trkpt lat="44.572097" lon="6.866018">
        <ele>2321.0</ele>
        <time>2015-07-09T09:09:36Z</time>
      </trkpt>
      <trkpt lat="44.572078" lon="6.866142">
        <ele>2322.4</ele>
        <time>2015-07-09T09:09:46Z</time>
      </trkpt>
      <trkpt lat="44.572058" lon="6.866262">
        <ele>2324.0</ele>
        <time>2015-07-09T09:09:55Z</time>
      </trkpt>
      <trkpt lat="44.572058" lon="6.866377">
        <ele>2325.4</ele>
        <time>2015-07-09T09:10:04Z</time>
      </trkpt>
      <trkpt lat="44.572055" lon="6.866388">
        <ele>2325.5</ele>
        <time>2015-07-09T09:10:05Z</time>
      </trkpt>
      <trkpt lat="44.571972" lon="6.866583">
        <ele>2327.4</ele>
        <time>2015-07-09T09:10:44Z</time>
      </trkpt>
      <trkpt lat="44.571943" lon="6.866697">
        <ele>2328.6</ele>
        <time>2015-07-09T09:10:53Z</time>
      </trkpt>
      <trkpt lat="44.571923" lon="6.866818">
        <ele>2329.5</ele>
        <time>2015-07-09T09:11:03Z</time>
      </trkpt>
      <trkpt lat="44.571927" lon="6.866940">
        <ele>2330.8</ele>
        <time>2015-07-09T09:11:12Z</time>
      </trkpt>
      <trkpt lat="44.571927" lon="6.866953">
        <ele>2330.9</ele>
        <time>2015-07-09T09:11:13Z</time>
      </trkpt>
      <trkpt lat="44.571870" lon="6.867152">
        <ele>2332.3</ele>
        <time>2015-07-09T09:11:40Z</time>
      </trkpt>
      <trkpt lat="44.571862" lon="6.867270">
        <ele>2333.4</ele>
        <time>2015-07-09T09:11:48Z</time>
      </trkpt>
      <trkpt lat="44.571845" lon="6.867393">
        <ele>2334.4</ele>
        <time>2015-07-09T09:11:56Z</time>
      </trkpt>
      <trkpt lat="44.571817" lon="6.867507">
        <ele>2335.3</ele>
        <time>2015-07-09T09:12:05Z</time>
      </trkpt>
      <trkpt lat="44.571768" lon="6.867608">
        <ele>2336.8</ele>
        <time>2015-07-09T09:12:16Z</time>
      </trkpt>
      <trkpt lat="44.571760" lon="6.867615">
        <ele>2336.8</ele>
        <time>2015-07-09T09:12:17Z</time>
      </trkpt>
      <trkpt lat="44.571622" lon="6.867707">
        <ele>2337.5</ele>
        <time>2015-07-09T09:12:34Z</time>
      </trkpt>
      <trkpt lat="44.571548" lon="6.867777">
        <ele>2337.9</ele>
        <time>2015-07-09T09:12:44Z</time>
      </trkpt>
      <trkpt lat="44.571507" lon="6.867878">
        <ele>2339.4</ele>
        <time>2015-07-09T09:13:04Z</time>
      </trkpt>
      <trkpt lat="44.571470" lon="6.867993">
        <ele>2341.1</ele>
        <time>2015-07-09T09:13:11Z</time>
      </trkpt>
      <trkpt lat="44.571422" lon="6.868098">
        <ele>2342.3</ele>
        <time>2015-07-09T09:13:19Z</time>
      </trkpt>
      <trkpt lat="44.571415" lon="6.868110">
        <ele>2342.5</ele>
        <time>2015-07-09T09:13:20Z</time>
      </trkpt>
      <trkpt lat="44.571312" lon="6.868282">
        <ele>2344.0</ele>
        <time>2015-07-09T09:13:35Z</time>
      </trkpt>
      <trkpt lat="44.571255" lon="6.868373">
        <ele>2344.7</ele>
        <time>2015-07-09T09:13:44Z</time>
      </trkpt>
      <trkpt lat="44.571190" lon="6.868447">
        <ele>2344.8</ele>
        <time>2015-07-09T09:13:54Z</time>
      </trkpt>
      <trkpt lat="44.571122" lon="6.868518">
        <ele>2345.0</ele>
        <time>2015-07-09T09:14:04Z</time>
      </trkpt>
      <trkpt lat="44.571065" lon="6.868608">
        <ele>2345.6</ele>
        <time>2015-07-09T09:14:15Z</time>
      </trkpt>
      <trkpt lat="44.571002" lon="6.868695">
        <ele>2345.9</ele>
        <time>2015-07-09T09:14:25Z</time>
      </trkpt>
      <trkpt lat="44.570995" lon="6.868703">
        <ele>2346.0</ele>
        <time>2015-07-09T09:14:26Z</time>
      </trkpt>
      <trkpt lat="44.570868" lon="6.868833">
        <ele>2346.2</ele>
        <time>2015-07-09T09:14:46Z</time>
      </trkpt>
      <trkpt lat="44.570780" lon="6.868820">
        <ele>2345.2</ele>
        <time>2015-07-09T09:14:56Z</time>
      </trkpt>
      <trkpt lat="44.570700" lon="6.868850">
        <ele>2345.1</ele>
        <time>2015-07-09T09:15:06Z</time>
      </trkpt>
      <trkpt lat="44.570628" lon="6.868915">
        <ele>2345.6</ele>
        <time>2015-07-09T09:15:20Z</time>
      </trkpt>
      <trkpt lat="44.570578" lon="6.869018">
        <ele>2346.8</ele>
        <time>2015-07-09T09:15:32Z</time>
      </trkpt>
      <trkpt lat="44.570575" lon="6.869022">
        <ele>2347.0</ele>
        <time>2015-07-09T09:15:33Z</time>
      </trkpt>
      <trkpt lat="44.570420" lon="6.869068">
        <ele>2346.5</ele>
        <time>2015-07-09T09:16:42Z</time>
      </trkpt>
      <trkpt lat="44.570413" lon="6.869070">
        <ele>2346.5</ele>
        <time>2015-07-09T09:16:43Z</time>
      </trkpt>
      <trkpt lat="44.570252" lon="6.869052">
        <ele>2345.2</ele>
        <time>2015-07-09T09:17:15Z</time>
      </trkpt>
      <trkpt lat="44.570235" lon="6.869173">
        <ele>2346.7</ele>
        <time>2015-07-09T09:17:25Z</time>
      </trkpt>
      <trkpt lat="44.570187" lon="6.869273">
        <ele>2348.6</ele>
        <time>2015-07-09T09:17:37Z</time>
      </trkpt>
      <trkpt lat="44.570117" lon="6.869348">
        <ele>2349.8</ele>
        <time>2015-07-09T09:17:50Z</time>
      </trkpt>
      <trkpt lat="44.570112" lon="6.869352">
        <ele>2349.7</ele>
        <time>2015-07-09T09:17:51Z</time>
      </trkpt>
      <trkpt lat="44.569948" lon="6.869425">
        <ele>2350.9</ele>
        <time>2015-07-09T09:18:18Z</time>
      </trkpt>
      <trkpt lat="44.569863" lon="6.869465">
        <ele>2352.1</ele>
        <time>2015-07-09T09:18:33Z</time>
      </trkpt>
      <trkpt lat="44.569788" lon="6.869523">
        <ele>2353.4</ele>
        <time>2015-07-09T09:18:44Z</time>
      </trkpt>
      <trkpt lat="44.569738" lon="6.869615">
        <ele>2355.3</ele>
        <time>2015-07-09T09:18:53Z</time>
      </trkpt>
      <trkpt lat="44.569738" lon="6.869628">
        <ele>2355.5</ele>
        <time>2015-07-09T09:18:54Z</time>
      </trkpt>
      <trkpt lat="44.569585" lon="6.869735">
        <ele>2357.6</ele>
        <time>2015-07-09T09:19:19Z</time>
      </trkpt>
      <trkpt lat="44.569515" lon="6.869808">
        <ele>2358.8</ele>
        <time>2015-07-09T09:19:29Z</time>
      </trkpt>
      <trkpt lat="44.569435" lon="6.869845">
        <ele>2359.4</ele>
        <time>2015-07-09T09:19:39Z</time>
      </trkpt>
      <trkpt lat="44.569347" lon="6.869863">
        <ele>2359.6</ele>
        <time>2015-07-09T09:19:47Z</time>
      </trkpt>
      <trkpt lat="44.569270" lon="6.869912">
        <ele>2360.1</ele>
        <time>2015-07-09T09:19:56Z</time>
      </trkpt>
      <trkpt lat="44.569262" lon="6.869920">
        <ele>2360.3</ele>
        <time>2015-07-09T09:19:57Z</time>
      </trkpt>
      <trkpt lat="44.569118" lon="6.870027">
        <ele>2361.8</ele>
        <time>2015-07-09T09:20:15Z</time>
      </trkpt>
      <trkpt lat="44.569035" lon="6.870055">
        <ele>2362.7</ele>
        <time>2015-07-09T09:20:24Z</time>
      </trkpt>
      <trkpt lat="44.568950" lon="6.870035">
        <ele>2362.7</ele>
        <time>2015-07-09T09:20:31Z</time>
      </trkpt>
      <trkpt lat="44.568878" lon="6.870103">
        <ele>2364.3</ele>
        <time>2015-07-09T09:20:48Z</time>
      </trkpt>
      <trkpt lat="44.568802" lon="6.870160">
        <ele>2365.4</ele>
        <time>2015-07-09T09:21:02Z</time>
      </trkpt>
      <trkpt lat="44.568792" lon="6.870157">
        <ele>2365.5</ele>
        <time>2015-07-09T09:21:03Z</time>
      </trkpt>
      <trkpt lat="44.568627" lon="6.870195">
        <ele>2366.6</ele>
        <time>2015-07-09T09:21:50Z</time>
      </trkpt>
      <trkpt lat="44.568538" lon="6.870218">
        <ele>2367.1</ele>
        <time>2015-07-09T09:21:59Z</time>
      </trkpt>
      <trkpt lat="44.568457" lon="6.870263">
        <ele>2367.9</ele>
        <time>2015-07-09T09:22:25Z</time>
      </trkpt>
      <trkpt lat="44.568452" lon="6.870265">
        <ele>2367.9</ele>
        <time>2015-07-09T09:22:26Z</time>
      </trkpt>
      <trkpt lat="44.568305" lon="6.870332">
        <ele>2368.9</ele>
        <time>2015-07-09T09:22:43Z</time>
      </trkpt>
      <trkpt lat="44.568220" lon="6.870357">
        <ele>2369.5</ele>
        <time>2015-07-09T09:22:53Z</time>
      </trkpt>
      <trkpt lat="44.568138" lon="6.870380">
        <ele>2370.1</ele>
        <time>2015-07-09T09:23:06Z</time>
      </trkpt>
      <trkpt lat="44.568077" lon="6.870467">
        <ele>2371.2</ele>
        <time>2015-07-09T09:23:16Z</time>
      </trkpt>
      <trkpt lat="44.568005" lon="6.870538">
        <ele>2372.2</ele>
        <time>2015-07-09T09:23:29Z</time>
      </trkpt>
      <trkpt lat="44.568000" lon="6.870545">
        <ele>2372.3</ele>
        <time>2015-07-09T09:23:30Z</time>
      </trkpt>
    </trkseg>
  </trk>
</gpx>
